Location:  
MeteoStar


Sort by weather type Sort by elevation Sort by visibility Sort from west to east north Sort from north to south Alphabetically Sort from strongest wind speed Sort from lowest to highest pressure Sort from highest to lowest dew point temperature Sort coolest temperatures to warmest Sort warm temperatures to coolest
 Metric

Current Observations for Saudi Arabia

Abha06:00ZClear75 46SSW 5 756856
Al Ahsa06:00ZClear97 4151007.6CALM92587
Al Baha06:00ZClear77 595E 4 775419
Al Qaysumah06:00ZNot Avail.93 4841009.8N 16 901174
Al-Jouf06:00ZNot Avail.77 3251012.2CALM772260
Arar06:00ZMostly Cloudy77 5251012.7NNE 6 771820
Bisha06:00ZNot Avail.84 5751013.8SE 3 833828
Dhahran06:00ZDust95 4131006.0WNW 5 9185
Gassim06:00ZDust91 5531009.6NNE 5 892125
Gizan06:00ZMostly Cloudy97 8241010.1WSW 8 12119
Guriat06:00ZPartly Cloudy66 4531014.5W 2 661669
Hail06:00ZMostly Cloudy79 4641014.0NE 6 793330
Jeddah King Abdul Aziz International Airport 06:00ZNot Avail.93 5941009.1NW 3 9249
Khamis Mushait06:00ZClear75 464ESE 7 756778
King Khaled International Airport06:00ZClear97 3651010.9S 6 922014
Madinah06:00ZPartly Cloudy91 4541011.4NNE 5 882145
Makkah06:00ZNot Avail.95 7041008.9S 3 1011017
Najran06:00ZNot Avail.86 4141013.5NNE 4 833976
Rafha06:00ZDust81 322.51011.7N 11 791473
Sharurah06:00ZNot Avail.91 4351011.2W 7 872362
Tabuk06:00ZMostly Cloudy81 4551009.9SSE 13 792552
Taif06:00ZNot Avail.81 5551015.1SSW 5 804849
Turaif06:00ZCloudy63 4551014.8W 8 632667
Wadi Al Dawasser Airport06:00ZNot Avail.93 6351010.5SE 8 942047
Wejh06:00ZClear86 7351009.1NW 14 9365
Yenbo06:00ZNot Avail.88 7251007.1ESE 4 9426

Atlantic
Tropical Watch